sensor_id;sensor_type;location;lat;lon;timestamp;P1;durP1;ratioP1;P2;durP2;ratioP2
18659;SDS011;9459;50.254;19.014;2022-09-09T00:00:59;6.03;;;5.43;;
18659;SDS011;9459;50.254;19.014;2022-09-09T00:03:35;6.22;;;5.63;;
18659;SDS011;9459;50.254;19.014;2022-09-09T00:06:08;6.82;;;5.35;;
18659;SDS011;9459;50.254;19.014;2022-09-09T00:08:48;7.72;;;5.55;;
18659;SDS011;9459;50.254;19.014;2022-09-09T00:11:24;7.15;;;6.07;;
18659;SDS011;9459;50.254;19.014;2022-09-09T00:13:57;7.13;;;6.43;;
18659;SDS011;9459;50.254;19.014;2022-09-09T00:16:31;7.47;;;6.68;;
18659;SDS011;9459;50.254;19.014;2022-09-09T00:19:00;7.75;;;7.03;;
18659;SDS011;9459;50.254;19.014;2022-09-09T00:21:32;7.82;;;7.03;;
18659;SDS011;9459;50.254;19.014;2022-09-09T00:24:07;9.43;;;8.52;;
18659;SDS011;9459;50.254;19.014;2022-09-09T00:26:41;9.05;;;8.10;;
18659;SDS011;9459;50.254;19.014;2022-09-09T00:29:14;8.75;;;7.95;;
18659;SDS011;9459;50.254;19.014;2022-09-09T00:31:45;11.35;;;10.13;;
18659;SDS011;9459;50.254;19.014;2022-09-09T00:34:14;11.07;;;9.98;;
18659;SDS011;9459;50.254;19.014;2022-09-09T00:36:46;11.55;;;10.43;;
18659;SDS011;9459;50.254;19.014;2022-09-09T00:39:23;11.05;;;9.85;;
18659;SDS011;9459;50.254;19.014;2022-09-09T00:41:58;11.40;;;10.30;;
18659;SDS011;9459;50.254;19.014;2022-09-09T00:44:36;11.18;;;10.07;;
18659;SDS011;9459;50.254;19.014;2022-09-09T00:47:12;13.02;;;11.32;;
18659;SDS011;9459;50.254;19.014;2022-09-09T00:49:53;14.70;;;11.70;;
18659;SDS011;9459;50.254;19.014;2022-09-09T00:52:30;14.45;;;11.68;;
18659;SDS011;9459;50.254;19.014;2022-09-09T00:55:07;12.27;;;10.80;;
18659;SDS011;9459;50.254;19.014;2022-09-09T00:57:42;12.32;;;11.02;;
18659;SDS011;9459;50.254;19.014;2022-09-09T01:00:16;11.77;;;10.52;;
18659;SDS011;9459;50.254;19.014;2022-09-09T01:02:50;13.38;;;12.05;;
18659;SDS011;9459;50.254;19.014;2022-09-09T01:05:23;13.25;;;11.93;;
18659;SDS011;9459;50.254;19.014;2022-09-09T01:07:55;13.68;;;12.20;;
18659;SDS011;9459;50.254;19.014;2022-09-09T01:10:28;15.85;;;12.38;;
18659;SDS011;9459;50.254;19.014;2022-09-09T01:13:02;13.25;;;11.95;;
18659;SDS011;9459;50.254;19.014;2022-09-09T01:15:37;16.48;;;14.77;;
18659;SDS011;9459;50.254;19.014;2022-09-09T01:18:07;19.25;;;15.15;;
18659;SDS011;9459;50.254;19.014;2022-09-09T01:20:39;19.70;;;17.15;;
18659;SDS011;9459;50.254;19.014;2022-09-09T01:23:23;21.30;;;17.20;;
18659;SDS011;9459;50.254;19.014;2022-09-09T01:26:10;20.80;;;17.38;;
18659;SDS011;9459;50.254;19.014;2022-09-09T01:28:43;20.08;;;17.75;;
18659;SDS011;9459;50.254;19.014;2022-09-09T01:31:14;23.23;;;18.48;;
18659;SDS011;9459;50.254;19.014;2022-09-09T01:33:45;17.73;;;15.43;;
18659;SDS011;9459;50.254;19.014;2022-09-09T01:36:15;18.10;;;15.75;;
18659;SDS011;9459;50.254;19.014;2022-09-09T01:38:47;21.63;;;15.60;;
18659;SDS011;9459;50.254;19.014;2022-09-09T01:41:17;18.83;;;16.92;;
18659;SDS011;9459;50.254;19.014;2022-09-09T01:43:45;17.98;;;16.08;;
18659;SDS011;9459;50.254;19.014;2022-09-09T01:46:13;20.27;;;18.13;;
18659;SDS011;9459;50.254;19.014;2022-09-09T01:48:42;16.73;;;15.15;;
18659;SDS011;9459;50.254;19.014;2022-09-09T01:51:11;16.55;;;14.75;;
18659;SDS011;9459;50.254;19.014;2022-09-09T01:53:39;17.15;;;15.45;;
18659;SDS011;9459;50.254;19.014;2022-09-09T01:56:12;16.48;;;14.82;;
18659;SDS011;9459;50.254;19.014;2022-09-09T01:58:56;15.75;;;14.15;;
18659;SDS011;9459;50.254;19.014;2022-09-09T02:01:35;17.40;;;15.55;;
18659;SDS011;9459;50.254;19.014;2022-09-09T02:04:14;17.80;;;16.08;;
18659;SDS011;9459;50.254;19.014;2022-09-09T02:06:48;15.57;;;14.15;;
18659;SDS011;9459;50.254;19.014;2022-09-09T02:09:24;17.23;;;15.45;;
18659;SDS011;9459;50.254;19.014;2022-09-09T02:11:56;13.93;;;12.63;;
18659;SDS011;9459;50.254;19.014;2022-09-09T02:14:27;13.63;;;12.30;;
18659;SDS011;9459;50.254;19.014;2022-09-09T02:16:59;14.38;;;12.90;;
18659;SDS011;9459;50.254;19.014;2022-09-09T02:19:32;14.70;;;13.20;;
18659;SDS011;9459;50.254;19.014;2022-09-09T02:22:01;14.82;;;13.40;;
18659;SDS011;9459;50.254;19.014;2022-09-09T02:24:30;14.90;;;13.50;;
18659;SDS011;9459;50.254;19.014;2022-09-09T02:27:01;14.00;;;12.55;;
18659;SDS011;9459;50.254;19.014;2022-09-09T02:29:33;14.32;;;12.95;;
18659;SDS011;9459;50.254;19.014;2022-09-09T02:32:04;14.40;;;13.03;;
18659;SDS011;9459;50.254;19.014;2022-09-09T02:34:35;13.93;;;12.52;;
18659;SDS011;9459;50.254;19.014;2022-09-09T02:37:05;13.93;;;12.63;;
18659;SDS011;9459;50.254;19.014;2022-09-09T02:39:34;12.38;;;11.27;;
18659;SDS011;9459;50.254;19.014;2022-09-09T02:42:04;13.85;;;12.45;;
18659;SDS011;9459;50.254;19.014;2022-09-09T02:44:34;13.90;;;12.52;;
18659;SDS011;9459;50.254;19.014;2022-09-09T02:47:13;12.07;;;10.88;;
18659;SDS011;9459;50.254;19.014;2022-09-09T02:49:50;13.30;;;12.07;;
18659;SDS011;9459;50.254;19.014;2022-09-09T02:52:25;12.18;;;11.07;;
18659;SDS011;9459;50.254;19.014;2022-09-09T02:55:04;13.68;;;12.27;;
18659;SDS011;9459;50.254;19.014;2022-09-09T02:57:36;10.57;;;9.40;;
18659;SDS011;9459;50.254;19.014;2022-09-09T03:00:06;11.98;;;10.88;;
18659;SDS011;9459;50.254;19.014;2022-09-09T03:02:35;11.10;;;10.10;;
18659;SDS011;9459;50.254;19.014;2022-09-09T03:05:04;10.57;;;9.60;;
18659;SDS011;9459;50.254;19.014;2022-09-09T03:07:33;13.30;;;12.00;;
18659;SDS011;9459;50.254;19.014;2022-09-09T03:10:02;14.00;;;12.70;;
18659;SDS011;9459;50.254;19.014;2022-09-09T03:12:31;13.32;;;12.02;;
18659;SDS011;9459;50.254;19.014;2022-09-09T03:15:01;14.82;;;13.27;;
18659;SDS011;9459;50.254;19.014;2022-09-09T03:17:30;12.20;;;11.00;;
18659;SDS011;9459;50.254;19.014;2022-09-09T03:19:59;13.38;;;12.10;;
18659;SDS011;9459;50.254;19.014;2022-09-09T03:22:28;12.82;;;11.57;;
18659;SDS011;9459;50.254;19.014;2022-09-09T03:24:56;12.90;;;11.70;;
18659;SDS011;9459;50.254;19.014;2022-09-09T03:27:24;12.77;;;11.57;;
18659;SDS011;9459;50.254;19.014;2022-09-09T03:29:52;10.25;;;9.35;;
18659;SDS011;9459;50.254;19.014;2022-09-09T03:32:22;13.40;;;12.20;;
18659;SDS011;9459;50.254;19.014;2022-09-09T03:34:52;12.35;;;11.25;;
18659;SDS011;9459;50.254;19.014;2022-09-09T03:37:20;12.55;;;11.32;;
18659;SDS011;9459;50.254;19.014;2022-09-09T03:39:49;12.82;;;11.65;;
18659;SDS011;9459;50.254;19.014;2022-09-09T03:42:17;11.70;;;10.60;;
18659;SDS011;9459;50.254;19.014;2022-09-09T03:44:46;12.02;;;10.82;;
18659;SDS011;9459;50.254;19.014;2022-09-09T03:47:17;12.57;;;11.07;;
18659;SDS011;9459;50.254;19.014;2022-09-09T03:49:47;12.25;;;10.95;;
18659;SDS011;9459;50.254;19.014;2022-09-09T03:52:15;12.73;;;11.52;;
18659;SDS011;9459;50.254;19.014;2022-09-09T03:54:49;13.25;;;11.85;;
18659;SDS011;9459;50.254;19.014;2022-09-09T03:57:18;12.27;;;11.13;;
18659;SDS011;9459;50.254;19.014;2022-09-09T03:59:46;13.48;;;12.27;;
18659;SDS011;9459;50.254;19.014;2022-09-09T04:02:14;11.55;;;10.50;;
18659;SDS011;9459;50.254;19.014;2022-09-09T04:04:43;12.98;;;11.65;;
18659;SDS011;9459;50.254;19.014;2022-09-09T04:07:12;12.32;;;11.20;;
18659;SDS011;9459;50.254;19.014;2022-09-09T04:09:41;12.98;;;11.75;;
18659;SDS011;9459;50.254;19.014;2022-09-09T04:12:09;11.32;;;10.32;;
18659;SDS011;9459;50.254;19.014;2022-09-09T04:14:39;13.00;;;11.77;;
18659;SDS011;9459;50.254;19.014;2022-09-09T04:17:08;13.13;;;11.88;;
18659;SDS011;9459;50.254;19.014;2022-09-09T04:19:36;13.30;;;12.00;;
18659;SDS011;9459;50.254;19.014;2022-09-09T04:22:04;15.05;;;13.45;;
18659;SDS011;9459;50.254;19.014;2022-09-09T04:24:34;14.60;;;13.20;;
18659;SDS011;9459;50.254;19.014;2022-09-09T04:27:02;15.00;;;13.60;;
18659;SDS011;9459;50.254;19.014;2022-09-09T04:29:30;14.27;;;12.88;;
18659;SDS011;9459;50.254;19.014;2022-09-09T04:31:59;13.27;;;11.95;;
18659;SDS011;9459;50.254;19.014;2022-09-09T04:34:27;15.77;;;11.65;;
18659;SDS011;9459;50.254;19.014;2022-09-09T04:36:56;12.35;;;11.25;;
18659;SDS011;9459;50.254;19.014;2022-09-09T04:39:24;14.10;;;12.80;;
18659;SDS011;9459;50.254;19.014;2022-09-09T04:41:54;14.38;;;13.07;;
18659;SDS011;9459;50.254;19.014;2022-09-09T04:44:22;14.27;;;12.55;;
18659;SDS011;9459;50.254;19.014;2022-09-09T04:46:50;11.55;;;10.45;;
18659;SDS011;9459;50.254;19.014;2022-09-09T04:49:18;14.43;;;13.02;;
18659;SDS011;9459;50.254;19.014;2022-09-09T04:51:48;14.38;;;11.95;;
18659;SDS011;9459;50.254;19.014;2022-09-09T04:54:16;13.10;;;10.27;;
18659;SDS011;9459;50.254;19.014;2022-09-09T04:56:45;12.07;;;10.85;;
18659;SDS011;9459;50.254;19.014;2022-09-09T04:59:14;12.45;;;11.25;;
18659;SDS011;9459;50.254;19.014;2022-09-09T05:01:43;11.18;;;10.18;;
18659;SDS011;9459;50.254;19.014;2022-09-09T05:04:11;9.23;;;8.43;;
18659;SDS011;9459;50.254;19.014;2022-09-09T05:06:40;10.45;;;9.32;;
18659;SDS011;9459;50.254;19.014;2022-09-09T05:09:09;9.55;;;8.45;;
18659;SDS011;9459;50.254;19.014;2022-09-09T05:11:37;8.82;;;7.75;;
18659;SDS011;9459;50.254;19.014;2022-09-09T05:14:05;8.30;;;6.88;;
18659;SDS011;9459;50.254;19.014;2022-09-09T05:16:35;7.78;;;6.97;;
18659;SDS011;9459;50.254;19.014;2022-09-09T05:19:03;9.95;;;8.82;;
18659;SDS011;9459;50.254;19.014;2022-09-09T05:21:31;9.23;;;8.25;;
18659;SDS011;9459;50.254;19.014;2022-09-09T05:24:00;7.78;;;6.68;;
18659;SDS011;9459;50.254;19.014;2022-09-09T05:26:28;8.02;;;7.22;;
18659;SDS011;9459;50.254;19.014;2022-09-09T05:28:58;9.57;;;7.35;;
18659;SDS011;9459;50.254;19.014;2022-09-09T05:31:29;8.25;;;7.45;;
18659;SDS011;9459;50.254;19.014;2022-09-09T05:33:59;11.30;;;8.95;;
18659;SDS011;9459;50.254;19.014;2022-09-09T05:36:28;7.28;;;6.57;;
18659;SDS011;9459;50.254;19.014;2022-09-09T05:38:56;11.00;;;6.50;;
18659;SDS011;9459;50.254;19.014;2022-09-09T05:41:24;7.05;;;5.93;;
18659;SDS011;9459;50.254;19.014;2022-09-09T05:43:53;7.03;;;6.32;;
18659;SDS011;9459;50.254;19.014;2022-09-09T05:46:22;6.97;;;6.38;;
18659;SDS011;9459;50.254;19.014;2022-09-09T05:48:52;6.32;;;5.72;;
18659;SDS011;9459;50.254;19.014;2022-09-09T05:51:22;5.28;;;4.78;;
18659;SDS011;9459;50.254;19.014;2022-09-09T05:53:53;5.97;;;5.47;;
18659;SDS011;9459;50.254;19.014;2022-09-09T05:56:23;6.10;;;5.47;;
18659;SDS011;9459;50.254;19.014;2022-09-09T05:58:52;7.82;;;6.35;;
18659;SDS011;9459;50.254;19.014;2022-09-09T06:01:21;5.60;;;4.60;;
18659;SDS011;9459;50.254;19.014;2022-09-09T06:03:51;4.82;;;4.32;;
18659;SDS011;9459;50.254;19.014;2022-09-09T06:06:20;6.07;;;4.10;;
18659;SDS011;9459;50.254;19.014;2022-09-09T06:08:51;7.03;;;4.43;;
18659;SDS011;9459;50.254;19.014;2022-09-09T06:11:21;3.72;;;3.42;;
18659;SDS011;9459;50.254;19.014;2022-09-09T06:13:50;6.93;;;3.75;;
18659;SDS011;9459;50.254;19.014;2022-09-09T06:16:21;3.20;;;2.90;;
18659;SDS011;9459;50.254;19.014;2022-09-09T06:18:51;4.00;;;3.42;;
18659;SDS011;9459;50.254;19.014;2022-09-09T06:21:22;5.35;;;2.80;;
18659;SDS011;9459;50.254;19.014;2022-09-09T06:23:52;4.07;;;2.88;;
18659;SDS011;9459;50.254;19.014;2022-09-09T06:26:26;3.65;;;2.63;;
18659;SDS011;9459;50.254;19.014;2022-09-09T06:31:26;3.42;;;3.10;;
18659;SDS011;9459;50.254;19.014;2022-09-09T06:33:57;2.85;;;2.33;;
18659;SDS011;9459;50.254;19.014;2022-09-09T06:36:29;2.50;;;2.25;;
18659;SDS011;9459;50.254;19.014;2022-09-09T06:38:58;3.10;;;2.25;;
18659;SDS011;9459;50.254;19.014;2022-09-09T06:41:27;4.70;;;2.88;;
18659;SDS011;9459;50.254;19.014;2022-09-09T06:43:56;5.10;;;2.30;;
18659;SDS011;9459;50.254;19.014;2022-09-09T06:46:26;4.75;;;2.20;;
18659;SDS011;9459;50.254;19.014;2022-09-09T06:48:55;6.50;;;2.65;;
18659;SDS011;9459;50.254;19.014;2022-09-09T06:51:27;3.15;;;1.88;;
18659;SDS011;9459;50.254;19.014;2022-09-09T06:53:58;3.63;;;2.78;;
18659;SDS011;9459;50.254;19.014;2022-09-09T06:56:29;2.95;;;1.98;;
18659;SDS011;9459;50.254;19.014;2022-09-09T06:58:59;3.33;;;1.70;;
18659;SDS011;9459;50.254;19.014;2022-09-09T07:01:31;2.30;;;1.65;;
18659;SDS011;9459;50.254;19.014;2022-09-09T07:04:01;2.22;;;1.15;;
18659;SDS011;9459;50.254;19.014;2022-09-09T07:06:36;4.85;;;1.80;;
18659;SDS011;9459;50.254;19.014;2022-09-09T07:09:05;2.67;;;1.80;;
18659;SDS011;9459;50.254;19.014;2022-09-09T07:11:37;3.53;;;1.70;;
18659;SDS011;9459;50.254;19.014;2022-09-09T07:14:07;4.85;;;1.58;;
18659;SDS011;9459;50.254;19.014;2022-09-09T07:16:40;3.03;;;1.40;;
18659;SDS011;9459;50.254;19.014;2022-09-09T07:19:08;2.92;;;1.10;;
18659;SDS011;9459;50.254;19.014;2022-09-09T07:21:39;2.67;;;1.40;;
18659;SDS011;9459;50.254;19.014;2022-09-09T07:24:07;2.10;;;1.05;;
18659;SDS011;9459;50.254;19.014;2022-09-09T07:26:37;1.70;;;1.20;;
18659;SDS011;9459;50.254;19.014;2022-09-09T07:29:07;2.35;;;1.10;;
18659;SDS011;9459;50.254;19.014;2022-09-09T07:31:36;1.70;;;1.15;;
18659;SDS011;9459;50.254;19.014;2022-09-09T07:34:06;1.60;;;1.50;;
18659;SDS011;9459;50.254;19.014;2022-09-09T07:36:35;2.65;;;1.10;;
18659;SDS011;9459;50.254;19.014;2022-09-09T07:39:07;2.17;;;0.98;;
18659;SDS011;9459;50.254;19.014;2022-09-09T07:41:37;2.90;;;1.00;;
18659;SDS011;9459;50.254;19.014;2022-09-09T07:46:35;1.40;;;1.02;;
18659;SDS011;9459;50.254;19.014;2022-09-09T07:49:04;3.53;;;0.93;;
18659;SDS011;9459;50.254;19.014;2022-09-09T07:51:33;2.00;;;1.10;;
18659;SDS011;9459;50.254;19.014;2022-09-09T07:54:03;2.53;;;1.00;;
18659;SDS011;9459;50.254;19.014;2022-09-09T07:56:34;1.90;;;1.10;;
18659;SDS011;9459;50.254;19.014;2022-09-09T07:59:03;4.05;;;1.25;;
18659;SDS011;9459;50.254;19.014;2022-09-09T08:01:34;1.73;;;1.23;;
18659;SDS011;9459;50.254;19.014;2022-09-09T08:04:07;2.00;;;1.00;;
18659;SDS011;9459;50.254;19.014;2022-09-09T08:06:36;1.35;;;0.90;;
18659;SDS011;9459;50.254;19.014;2022-09-09T08:09:06;1.30;;;1.13;;
18659;SDS011;9459;50.254;19.014;2022-09-09T08:11:37;3.25;;;1.17;;
18659;SDS011;9459;50.254;19.014;2022-09-09T08:14:05;2.67;;;0.90;;
18659;SDS011;9459;50.254;19.014;2022-09-09T08:16:35;1.25;;;1.00;;
18659;SDS011;9459;50.254;19.014;2022-09-09T08:19:05;1.38;;;1.10;;
18659;SDS011;9459;50.254;19.014;2022-09-09T08:21:35;1.85;;;1.02;;
18659;SDS011;9459;50.254;19.014;2022-09-09T08:24:05;6.43;;;1.48;;
18659;SDS011;9459;50.254;19.014;2022-09-09T08:26:34;4.03;;;3.63;;
18659;SDS011;9459;50.254;19.014;2022-09-09T08:29:05;2.55;;;1.30;;
18659;SDS011;9459;50.254;19.014;2022-09-09T08:31:35;2.13;;;1.10;;
18659;SDS011;9459;50.254;19.014;2022-09-09T08:36:34;1.30;;;1.00;;
18659;SDS011;9459;50.254;19.014;2022-09-09T08:39:04;1.15;;;0.88;;
18659;SDS011;9459;50.254;19.014;2022-09-09T08:41:36;1.95;;;1.15;;
18659;SDS011;9459;50.254;19.014;2022-09-09T08:44:14;1.83;;;0.93;;
18659;SDS011;9459;50.254;19.014;2022-09-09T08:46:50;2.33;;;0.90;;
18659;SDS011;9459;50.254;19.014;2022-09-09T08:49:28;1.52;;;1.13;;
18659;SDS011;9459;50.254;19.014;2022-09-09T08:52:04;1.08;;;0.82;;
18659;SDS011;9459;50.254;19.014;2022-09-09T08:54:38;1.48;;;1.02;;
18659;SDS011;9459;50.254;19.014;2022-09-09T08:57:20;1.80;;;1.30;;
18659;SDS011;9459;50.254;19.014;2022-09-09T08:59:53;1.05;;;0.80;;
18659;SDS011;9459;50.254;19.014;2022-09-09T09:02:24;1.58;;;0.98;;
18659;SDS011;9459;50.254;19.014;2022-09-09T09:05:09;1.00;;;0.70;;
18659;SDS011;9459;50.254;19.014;2022-09-09T09:07:53;1.67;;;0.95;;
18659;SDS011;9459;50.254;19.014;2022-09-09T09:10:31;1.48;;;0.90;;
18659;SDS011;9459;50.254;19.014;2022-09-09T09:13:13;1.38;;;0.90;;
18659;SDS011;9459;50.254;19.014;2022-09-09T09:15:43;2.30;;;1.00;;
18659;SDS011;9459;50.254;19.014;2022-09-09T09:18:14;1.02;;;0.63;;
18659;SDS011;9459;50.254;19.014;2022-09-09T09:20:44;1.85;;;0.98;;
18659;SDS011;9459;50.254;19.014;2022-09-09T09:23:21;2.08;;;0.88;;
18659;SDS011;9459;50.254;19.014;2022-09-09T09:25:50;2.00;;;0.85;;
18659;SDS011;9459;50.254;19.014;2022-09-09T09:28:22;1.20;;;1.00;;
18659;SDS011;9459;50.254;19.014;2022-09-09T09:30:52;1.10;;;0.80;;
18659;SDS011;9459;50.254;19.014;2022-09-09T09:33:26;2.35;;;0.93;;
18659;SDS011;9459;50.254;19.014;2022-09-09T09:35:55;1.25;;;0.80;;
18659;SDS011;9459;50.254;19.014;2022-09-09T09:38:27;1.50;;;0.90;;
18659;SDS011;9459;50.254;19.014;2022-09-09T09:41:15;2.45;;;1.33;;
18659;SDS011;9459;50.254;19.014;2022-09-09T09:43:52;2.70;;;1.60;;
18659;SDS011;9459;50.254;19.014;2022-09-09T09:46:22;2.17;;;1.30;;
18659;SDS011;9459;50.254;19.014;2022-09-09T09:48:59;5.25;;;2.45;;
18659;SDS011;9459;50.254;19.014;2022-09-09T09:51:28;1.95;;;1.00;;
18659;SDS011;9459;50.254;19.014;2022-09-09T09:54:15;2.30;;;1.33;;
18659;SDS011;9459;50.254;19.014;2022-09-09T09:56:47;2.42;;;1.77;;
18659;SDS011;9459;50.254;19.014;2022-09-09T09:59:21;1.67;;;1.17;;
18659;SDS011;9459;50.254;19.014;2022-09-09T10:02:13;1.38;;;1.08;;
18659;SDS011;9459;50.254;19.014;2022-09-09T10:04:42;1.10;;;0.90;;
18659;SDS011;9459;50.254;19.014;2022-09-09T10:07:12;2.63;;;1.10;;
18659;SDS011;9459;50.254;19.014;2022-09-09T10:09:41;1.20;;;0.93;;
18659;SDS011;9459;50.254;19.014;2022-09-09T10:12:12;1.65;;;0.80;;
18659;SDS011;9459;50.254;19.014;2022-09-09T10:14:51;1.13;;;0.95;;
18659;SDS011;9459;50.254;19.014;2022-09-09T10:17:25;1.35;;;0.90;;
18659;SDS011;9459;50.254;19.014;2022-09-09T10:20:01;1.25;;;0.88;;
18659;SDS011;9459;50.254;19.014;2022-09-09T10:22:43;1.48;;;0.90;;
18659;SDS011;9459;50.254;19.014;2022-09-09T10:25:26;1.20;;;0.80;;
18659;SDS011;9459;50.254;19.014;2022-09-09T10:28:08;1.02;;;0.80;;
18659;SDS011;9459;50.254;19.014;2022-09-09T10:30:47;3.70;;;0.90;;
18659;SDS011;9459;50.254;19.014;2022-09-09T10:33:21;2.58;;;1.17;;
18659;SDS011;9459;50.254;19.014;2022-09-09T10:35:57;2.55;;;1.00;;
18659;SDS011;9459;50.254;19.014;2022-09-09T10:38:36;1.42;;;0.90;;
18659;SDS011;9459;50.254;19.014;2022-09-09T10:41:13;1.65;;;0.93;;
18659;SDS011;9459;50.254;19.014;2022-09-09T10:46:51;3.78;;;0.88;;
18659;SDS011;9459;50.254;19.014;2022-09-09T10:49:42;1.83;;;0.90;;
18659;SDS011;9459;50.254;19.014;2022-09-09T10:52:21;3.45;;;1.00;;
18659;SDS011;9459;50.254;19.014;2022-09-09T10:54:55;2.25;;;0.90;;
18659;SDS011;9459;50.254;19.014;2022-09-09T10:57:26;2.03;;;0.90;;
18659;SDS011;9459;50.254;19.014;2022-09-09T11:00:00;1.75;;;0.80;;
18659;SDS011;9459;50.254;19.014;2022-09-09T11:02:33;2.08;;;1.30;;
18659;SDS011;9459;50.254;19.014;2022-09-09T11:05:03;2.50;;;0.95;;
18659;SDS011;9459;50.254;19.014;2022-09-09T11:07:35;1.85;;;1.00;;
18659;SDS011;9459;50.254;19.014;2022-09-09T11:10:13;1.80;;;0.90;;
18659;SDS011;9459;50.254;19.014;2022-09-09T11:12:45;1.45;;;0.73;;
18659;SDS011;9459;50.254;19.014;2022-09-09T11:17:46;1.10;;;0.80;;
18659;SDS011;9459;50.254;19.014;2022-09-09T11:20:17;1.42;;;0.80;;
18659;SDS011;9459;50.254;19.014;2022-09-09T11:22:47;0.70;;;0.60;;
18659;SDS011;9459;50.254;19.014;2022-09-09T11:25:18;2.22;;;0.60;;
18659;SDS011;9459;50.254;19.014;2022-09-09T11:27:56;0.80;;;0.75;;
18659;SDS011;9459;50.254;19.014;2022-09-09T11:30:34;1.25;;;0.70;;
18659;SDS011;9459;50.254;19.014;2022-09-09T11:33:33;0.82;;;0.50;;
18659;SDS011;9459;50.254;19.014;2022-09-09T11:36:22;1.38;;;0.88;;
18659;SDS011;9459;50.254;19.014;2022-09-09T11:39:14;1.33;;;0.73;;
18659;SDS011;9459;50.254;19.014;2022-09-09T11:41:53;1.10;;;0.70;;
18659;SDS011;9459;50.254;19.014;2022-09-09T11:44:34;2.13;;;0.70;;
18659;SDS011;9459;50.254;19.014;2022-09-09T11:47:03;1.77;;;0.80;;
18659;SDS011;9459;50.254;19.014;2022-09-09T11:49:45;0.98;;;0.50;;
18659;SDS011;9459;50.254;19.014;2022-09-09T11:52:20;0.80;;;0.57;;
18659;SDS011;9459;50.254;19.014;2022-09-09T11:54:49;1.15;;;0.60;;
18659;SDS011;9459;50.254;19.014;2022-09-09T11:57:23;1.05;;;0.60;;
18659;SDS011;9459;50.254;19.014;2022-09-09T11:59:54;1.38;;;0.60;;
18659;SDS011;9459;50.254;19.014;2022-09-09T12:02:23;1.05;;;0.60;;
18659;SDS011;9459;50.254;19.014;2022-09-09T12:04:59;1.20;;;0.70;;
18659;SDS011;9459;50.254;19.014;2022-09-09T12:07:33;2.63;;;0.93;;
18659;SDS011;9459;50.254;19.014;2022-09-09T12:10:04;1.15;;;0.95;;
18659;SDS011;9459;50.254;19.014;2022-09-09T12:12:45;0.70;;;0.70;;
18659;SDS011;9459;50.254;19.014;2022-09-09T12:15:22;1.17;;;0.80;;
18659;SDS011;9459;50.254;19.014;2022-09-09T12:17:55;1.02;;;0.70;;
18659;SDS011;9459;50.254;19.014;2022-09-09T12:20:33;1.20;;;0.73;;
18659;SDS011;9459;50.254;19.014;2022-09-09T12:23:13;1.55;;;0.57;;
18659;SDS011;9459;50.254;19.014;2022-09-09T12:25:48;0.75;;;0.65;;
18659;SDS011;9459;50.254;19.014;2022-09-09T12:28:27;1.33;;;0.70;;
18659;SDS011;9459;50.254;19.014;2022-09-09T12:31:08;0.93;;;0.70;;
18659;SDS011;9459;50.254;19.014;2022-09-09T12:33:45;1.27;;;0.73;;
18659;SDS011;9459;50.254;19.014;2022-09-09T12:36:16;1.92;;;0.60;;
18659;SDS011;9459;50.254;19.014;2022-09-09T12:38:46;1.02;;;0.90;;
18659;SDS011;9459;50.254;19.014;2022-09-09T12:41:21;0.95;;;0.60;;
18659;SDS011;9459;50.254;19.014;2022-09-09T12:43:50;1.10;;;0.63;;
18659;SDS011;9459;50.254;19.014;2022-09-09T12:46:21;1.02;;;0.60;;
18659;SDS011;9459;50.254;19.014;2022-09-09T12:48:53;0.80;;;0.70;;
18659;SDS011;9459;50.254;19.014;2022-09-09T12:51:25;0.95;;;0.63;;
18659;SDS011;9459;50.254;19.014;2022-09-09T12:53:56;1.45;;;0.68;;
18659;SDS011;9459;50.254;19.014;2022-09-09T12:56:25;1.27;;;0.60;;
18659;SDS011;9459;50.254;19.014;2022-09-09T12:58:55;1.48;;;0.77;;
18659;SDS011;9459;50.254;19.014;2022-09-09T13:01:26;0.82;;;0.50;;
18659;SDS011;9459;50.254;19.014;2022-09-09T13:03:55;0.70;;;0.60;;
18659;SDS011;9459;50.254;19.014;2022-09-09T13:06:25;3.35;;;0.60;;
18659;SDS011;9459;50.254;19.014;2022-09-09T13:08:56;1.35;;;0.70;;
18659;SDS011;9459;50.254;19.014;2022-09-09T13:11:26;1.15;;;0.70;;
18659;SDS011;9459;50.254;19.014;2022-09-09T13:13:56;1.00;;;0.80;;
18659;SDS011;9459;50.254;19.014;2022-09-09T13:16:25;1.10;;;0.70;;
18659;SDS011;9459;50.254;19.014;2022-09-09T13:18:59;0.82;;;0.70;;
18659;SDS011;9459;50.254;19.014;2022-09-09T13:21:33;1.20;;;0.80;;
18659;SDS011;9459;50.254;19.014;2022-09-09T13:24:01;0.95;;;0.70;;
18659;SDS011;9459;50.254;19.014;2022-09-09T13:26:30;1.13;;;0.65;;
18659;SDS011;9459;50.254;19.014;2022-09-09T13:29:14;1.58;;;0.70;;
18659;SDS011;9459;50.254;19.014;2022-09-09T13:31:45;1.20;;;0.70;;
18659;SDS011;9459;50.254;19.014;2022-09-09T13:34:14;1.65;;;0.70;;
18659;SDS011;9459;50.254;19.014;2022-09-09T13:36:58;1.02;;;0.57;;
18659;SDS011;9459;50.254;19.014;2022-09-09T13:39:29;0.98;;;0.57;;
18659;SDS011;9459;50.254;19.014;2022-09-09T13:41:57;1.48;;;0.60;;
18659;SDS011;9459;50.254;19.014;2022-09-09T13:44:26;1.63;;;0.68;;
18659;SDS011;9459;50.254;19.014;2022-09-09T13:46:59;2.55;;;0.98;;
18659;SDS011;9459;50.254;19.014;2022-09-09T13:49:35;1.25;;;0.77;;
18659;SDS011;9459;50.254;19.014;2022-09-09T13:52:05;1.42;;;0.73;;
18659;SDS011;9459;50.254;19.014;2022-09-09T13:54:37;0.47;;;0.40;;
18659;SDS011;9459;50.254;19.014;2022-09-09T13:57:11;0.88;;;0.65;;
18659;SDS011;9459;50.254;19.014;2022-09-09T13:59:43;0.88;;;0.80;;
18659;SDS011;9459;50.254;19.014;2022-09-09T14:02:31;1.95;;;0.65;;
18659;SDS011;9459;50.254;19.014;2022-09-09T14:05:00;1.48;;;0.70;;
18659;SDS011;9459;50.254;19.014;2022-09-09T14:07:30;1.48;;;0.80;;
18659;SDS011;9459;50.254;19.014;2022-09-09T14:09:58;1.27;;;0.70;;
18659;SDS011;9459;50.254;19.014;2022-09-09T14:12:27;2.67;;;0.68;;
18659;SDS011;9459;50.254;19.014;2022-09-09T14:14:55;0.70;;;0.60;;
18659;SDS011;9459;50.254;19.014;2022-09-09T14:17:23;0.80;;;0.60;;
18659;SDS011;9459;50.254;19.014;2022-09-09T14:19:56;1.25;;;0.70;;
18659;SDS011;9459;50.254;19.014;2022-09-09T14:22:24;1.10;;;0.73;;
18659;SDS011;9459;50.254;19.014;2022-09-09T14:24:54;1.45;;;0.95;;
18659;SDS011;9459;50.254;19.014;2022-09-09T14:27:24;0.80;;;0.52;;
18659;SDS011;9459;50.254;19.014;2022-09-09T14:29:53;0.82;;;0.70;;
18659;SDS011;9459;50.254;19.014;2022-09-09T14:32:22;1.58;;;0.80;;
18659;SDS011;9459;50.254;19.014;2022-09-09T14:34:50;0.93;;;0.80;;
18659;SDS011;9459;50.254;19.014;2022-09-09T14:37:18;1.05;;;0.82;;
18659;SDS011;9459;50.254;19.014;2022-09-09T14:39:47;3.35;;;0.70;;
18659;SDS011;9459;50.254;19.014;2022-09-09T14:42:18;0.93;;;0.73;;
18659;SDS011;9459;50.254;19.014;2022-09-09T14:44:46;2.25;;;0.77;;
18659;SDS011;9459;50.254;19.014;2022-09-09T14:47:15;1.02;;;0.70;;
18659;SDS011;9459;50.254;19.014;2022-09-09T14:49:43;1.05;;;0.70;;
18659;SDS011;9459;50.254;19.014;2022-09-09T14:52:12;1.30;;;0.88;;
18659;SDS011;9459;50.254;19.014;2022-09-09T14:54:41;1.52;;;0.70;;
18659;SDS011;9459;50.254;19.014;2022-09-09T14:57:09;1.15;;;0.70;;
18659;SDS011;9459;50.254;19.014;2022-09-09T14:59:39;1.98;;;0.70;;
18659;SDS011;9459;50.254;19.014;2022-09-09T15:02:07;1.20;;;0.60;;
18659;SDS011;9459;50.254;19.014;2022-09-09T15:04:37;1.38;;;0.70;;
18659;SDS011;9459;50.254;19.014;2022-09-09T15:07:05;0.60;;;0.60;;
18659;SDS011;9459;50.254;19.014;2022-09-09T15:09:33;2.13;;;0.73;;
18659;SDS011;9459;50.254;19.014;2022-09-09T15:12:02;1.02;;;0.70;;
18659;SDS011;9459;50.254;19.014;2022-09-09T15:14:31;0.95;;;0.70;;
18659;SDS011;9459;50.254;19.014;2022-09-09T15:17:00;3.00;;;0.80;;
18659;SDS011;9459;50.254;19.014;2022-09-09T15:19:29;1.25;;;0.60;;
18659;SDS011;9459;50.254;19.014;2022-09-09T15:21:57;1.08;;;0.70;;